Time;durP1;ratioP1;P1;durP2;ratioP2;P2;SDS_P1;SDS_P2;PMS_P1;PMS_P2;Temp;Humidity;BMP_temperature;BMP_pressure;BME280_temperature;BME280_humidity;BME280_pressure;Samples;Min_cycle;Max_cycle;Signal;HPM_P1;HPM_P2
2022/11/12 00:02:31;;;;;;;;;;;;;;;19.04;65.30;102507.09;7400554;19;1611;-52
2022/11/12 00:05:00;;;;;;;;;;;;;;;19.04;65.16;102507.09;7400542;19;1891;-52
2022/11/12 00:07:30;;;;;;;;;;;;;;;19.03;64.89;102520.59;7400318;19;1598;-52
2022/11/12 00:09:59;;;;;;;;;;;;;;;19.03;64.70;102496.47;7400833;19;2046;-52
2022/11/12 00:12:28;;;;;;;;;;;;;;;19.02;64.71;102492.94;7396632;19;1861;-52
2022/11/12 00:15:03;;;;;;;;;;;;;;;19.02;64.64;102505.44;7400588;19;1770;-52
2022/11/12 00:17:33;;;;;;;;;;;;;;;19.00;64.46;102505.56;7399128;19;1534;-52
2022/11/12 00:20:03;;;;;;;;;;;;;;;18.97;64.32;102495.00;7399895;19;1778;-53
2022/11/12 00:22:32;;;;;;;;;;;;;;;19.00;64.29;102475.19;7401702;19;1041;-52
2022/11/12 00:25:00;;;;;;;;;;;;;;;18.98;64.31;102491.38;7399280;19;1948;-52
2022/11/12 00:27:34;;;;;;;;;;;;;;;19.00;64.46;102483.22;7396808;19;2045;-52
2022/11/12 00:30:12;;;;;;;;;;;;;;;18.99;64.19;102489.56;7396037;19;1588;-52
2022/11/12 00:32:40;;;;;;;;;;;;;;;18.97;64.32;102489.66;7395268;19;1894;-52
2022/11/12 00:35:11;;;;;;;;;;;;;;;18.95;63.91;102483.50;7400925;19;1720;-52
2022/11/12 00:37:40;;;;;;;;;;;;;;;18.98;63.99;102498.53;7407481;19;1499;-52
2022/11/12 00:40:11;;;;;;;;;;;;;;;18.96;63.62;102487.94;7407776;19;1668;-52
2022/11/12 00:42:39;;;;;;;;;;;;;;;18.99;63.72;102497.59;7406342;19;1573;-52
2022/11/12 00:45:21;;;;;;;;;;;;;;;18.96;63.61;102493.31;7404477;19;1777;-52
2022/11/12 00:47:53;;;;;;;;;;;;;;;18.99;63.52;102492.25;7405370;19;1771;-52
2022/11/12 00:50:22;;;;;;;;;;;;;;;19.02;63.26;102500.97;7404266;19;1829;-52
2022/11/12 00:52:53;;;;;;;;;;;;;;;19.02;63.27;102506.34;7404504;19;1857;-52
2022/11/12 00:55:26;;;;;;;;;;;;;;;19.01;63.34;102491.19;7407036;19;1504;-52
2022/11/12 00:57:54;;;;;;;;;;;;;;;18.97;63.28;102489.66;7405657;19;1614;-52
2022/11/12 01:00:31;;;;;;;;;;;;;;;18.98;63.22;102510.16;7405658;19;1602;-53
2022/11/12 01:03:00;;;;;;;;;;;;;;;18.97;63.05;102492.31;7404847;19;1631;-52
2022/11/12 01:05:35;;;;;;;;;;;;;;;19.00;63.13;102494.84;7405406;19;1510;-52
2022/11/12 01:08:04;;;;;;;;;;;;;;;19.00;63.15;102484.13;7407213;19;994;-52
2022/11/12 01:10:32;;;;;;;;;;;;;;;18.96;63.10;102474.53;7407322;19;1481;-52
2022/11/12 01:13:13;;;;;;;;;;;;;;;18.99;62.78;102484.19;7401017;19;1857;-52
2022/11/12 01:15:47;;;;;;;;;;;;;;;18.99;62.89;102487.72;7405895;19;1650;-52
2022/11/12 01:18:18;;;;;;;;;;;;;;;18.95;63.07;102467.44;7405454;19;1869;-52
2022/11/12 01:20:47;;;;;;;;;;;;;;;18.96;62.63;102481.69;7404723;19;1745;-52
2022/11/12 01:23:15;;;;;;;;;;;;;;;18.99;63.07;102477.00;7405139;19;1429;-51
2022/11/12 01:25:44;;;;;;;;;;;;;;;18.99;64.34;102490.41;7404431;19;1783;-52
2022/11/12 01:28:13;;;;;;;;;;;;;;;18.97;62.89;102489.66;7400618;19;2008;-52
2022/11/12 01:30:41;;;;;;;;;;;;;;;18.93;63.28;102466.66;7405165;19;1673;-52
2022/11/12 01:33:16;;;;;;;;;;;;;;;18.99;63.51;102478.84;7402943;19;1849;-52
2022/11/12 01:35:45;;;;;;;;;;;;;;;19.02;63.21;102475.94;7405428;19;1365;-51
2022/11/12 01:38:19;;;;;;;;;;;;;;;19.04;63.07;102466.03;7402659;19;1612;-52
2022/11/12 01:40:51;;;;;;;;;;;;;;;19.05;63.18;102481.13;7404361;19;1749;-52
2022/11/12 01:43:19;;;;;;;;;;;;;;;19.01;63.34;102463.53;7405788;19;1460;-52
2022/11/12 01:45:50;;;;;;;;;;;;;;;19.04;63.28;102474.06;7404797;19;1794;-52
2022/11/12 01:48:31;;;;;;;;;;;;;;;18.99;63.53;102466.28;7403057;19;1646;-51
2022/11/12 01:51:04;;;;;;;;;;;;;;;18.96;62.90;102471.84;7404764;19;1859;-51
2022/11/12 01:53:35;;;;;;;;;;;;;;;18.98;62.75;102469.06;7403290;19;1891;-52
2022/11/12 01:56:05;;;;;;;;;;;;;;;19.00;63.35;102481.44;7402186;19;1879;-52
2022/11/12 01:58:37;;;;;;;;;;;;;;;19.03;63.14;102477.69;7403608;19;1610;-52
2022/11/12 02:01:05;;;;;;;;;;;;;;;19.03;62.35;102489.28;7404331;19;1819;-51
2022/11/12 02:03:40;;;;;;;;;;;;;;;19.36;62.96;102480.09;7403845;19;1642;-51
2022/11/12 02:06:18;;;;;;;;;;;;;;;19.72;61.56;102470.72;7402678;19;1927;-51
2022/11/12 02:08:48;;;;;;;;;;;;;;;20.29;60.02;102458.91;7403267;19;1705;-52
2022/11/12 02:11:21;;;;;;;;;;;;;;;20.90;58.29;102463.78;7403441;19;1867;-51
2022/11/12 02:14:00;;;;;;;;;;;;;;;21.01;58.26;102445.94;7402785;19;1918;-51
2022/11/12 02:16:37;;;;;;;;;;;;;;;20.73;58.99;102462.25;7402843;19;2224;-52
2022/11/12 02:19:11;;;;;;;;;;;;;;;21.00;58.50;102449.59;7403747;19;2040;-51
2022/11/12 02:21:45;;;;;;;;;;;;;;;20.46;59.38;102444.34;7403876;19;1912;-52
2022/11/12 02:24:29;;;;;;;;;;;;;;;20.03;60.19;102463.34;7402560;19;1364;-52
2022/11/12 02:26:58;;;;;;;;;;;;;;;19.80;60.82;102449.59;7395089;19;1205;-52
2022/11/12 02:29:27;;;;;;;;;;;;;;;19.67;60.98;102452.16;7398380;19;1523;-52
2022/11/12 02:31:56;;;;;;;;;;;;;;;19.60;60.99;102472.31;7401745;19;1855;-52
2022/11/12 02:34:28;;;;;;;;;;;;;;;19.53;61.12;102464.75;7402259;19;1461;-52
2022/11/12 02:37:13;;;;;;;;;;;;;;;19.46;60.99;102469.66;7401230;19;1520;-52
2022/11/12 02:39:44;;;;;;;;;;;;;;;19.46;60.81;102464.28;7402012;19;1965;-52
2022/11/12 02:42:23;;;;;;;;;;;;;;;19.45;60.79;102463.41;7403192;19;1572;-52
2022/11/12 02:44:51;;;;;;;;;;;;;;;19.41;60.75;102475.31;7402607;19;1887;-52
2022/11/12 02:50:01;;;;;;;;;;;;;;;19.28;60.79;102467.16;7401829;19;1932;-53
2022/11/12 02:52:36;;;;;;;;;;;;;;;19.31;60.75;102466.09;7402934;19;1853;-52
2022/11/12 02:55:05;;;;;;;;;;;;;;;19.31;60.89;102466.09;7403261;19;2397;-52
2022/11/12 02:57:34;;;;;;;;;;;;;;;19.34;61.01;102473.97;7400100;19;1831;-52
2022/11/12 03:02:41;;;;;;;;;;;;;;;19.30;60.71;102476.94;7401311;19;1219;-65
2022/11/12 03:05:10;;;;;;;;;;;;;;;19.26;60.75;102462.88;7406145;19;1677;-65
2022/11/12 03:07:41;;;;;;;;;;;;;;;19.26;60.75;102468.25;7405853;19;1627;-65
2022/11/12 03:10:10;;;;;;;;;;;;;;;19.27;60.46;102476.16;7404836;19;1396;-65
2022/11/12 03:12:38;;;;;;;;;;;;;;;19.33;60.55;102466.88;7404502;19;1866;-65
2022/11/12 03:15:07;;;;;;;;;;;;;;;19.31;60.60;102466.09;7405125;19;1609;-65
2022/11/12 03:17:36;;;;;;;;;;;;;;;19.28;60.47;102477.06;7406061;19;1466;-65
2022/11/12 03:20:04;;;;;;;;;;;;;;;19.27;60.79;102480.69;7403323;19;1728;-65
2022/11/12 03:22:32;;;;;;;;;;;;;;;19.26;60.56;102487.00;7405078;19;1336;-65
2022/11/12 03:25:03;;;;;;;;;;;;;;;19.18;61.44;102498.22;7404783;19;1474;-65
2022/11/12 03:27:32;;;;;;;;;;;;;;;19.12;62.29;102478.94;7405048;19;1378;-65
2022/11/12 03:30:00;;;;;;;;;;;;;;;19.01;62.08;102479.59;7403021;19;1781;-65
2022/11/12 03:32:28;;;;;;;;;;;;;;;19.02;62.16;102484.00;7402869;19;1854;-65
2022/11/12 03:34:57;;;;;;;;;;;;;;;19.02;62.65;102482.19;7404336;19;1360;-65
2022/11/12 03:37:25;;;;;;;;;;;;;;;18.99;62.27;102485.06;7403432;19;1619;-65
2022/11/12 03:39:53;;;;;;;;;;;;;;;19.00;62.88;102468.03;7403984;19;1609;-65
2022/11/12 03:42:24;;;;;;;;;;;;;;;18.96;62.51;102482.56;7403092;19;1615;-65
2022/11/12 03:44:52;;;;;;;;;;;;;;;18.99;63.37;102482.38;7404675;19;1360;-65
2022/11/12 03:47:21;;;;;;;;;;;;;;;18.93;63.77;102466.66;7405409;19;1004;-65
2022/11/12 03:49:49;;;;;;;;;;;;;;;18.93;63.17;102466.66;7405417;19;1043;-65
2022/11/12 03:52:17;;;;;;;;;;;;;;;18.94;62.79;102476.44;7403755;19;1834;-65
2022/11/12 03:54:45;;;;;;;;;;;;;;;18.92;63.10;102462.28;7402526;19;1681;-65
2022/11/12 03:57:14;;;;;;;;;;;;;;;18.92;63.49;102470.31;7404553;19;1634;-65
2022/11/12 03:59:45;;;;;;;;;;;;;;;18.92;63.93;102474.78;7405146;19;988;-65
2022/11/12 04:02:15;;;;;;;;;;;;;;;18.90;63.41;102477.59;7403673;19;1039;-65
2022/11/12 04:10:07;;;;;;;;;;;;;;;18.88;63.67;102480.34;7401097;19;1638;-66
2022/11/12 04:15:19;;;;;;;;;;;;;;;19.00;65.41;102493.94;7412304;19;1382;-71
2022/11/12 04:23:22;;;;;;;;;;;;;;;19.68;64.13;102470.00;7404261;19;1420;-69
2022/11/12 04:28:31;;;;;;;;;;;;;;;19.87;63.24;102476.91;7408091;19;1585;-70
2022/11/12 04:30:59;;;;;;;;;;;;;;;19.68;63.77;102480.75;7408348;19;1140;-70
2022/11/12 04:33:27;;;;;;;;;;;;;;;19.50;64.42;102491.78;7407631;19;1846;-70
2022/11/12 04:35:56;;;;;;;;;;;;;;;19.30;64.46;102496.59;7409106;19;1435;-70
2022/11/12 04:38:24;;;;;;;;;;;;;;;19.20;65.07;102488.25;7411344;19;1544;-69
2022/11/12 04:46:16;;;;;;;;;;;;;;;19.01;65.60;102482.28;7410492;19;1734;-69
2022/11/12 04:48:45;;;;;;;;;;;;;;;19.00;65.44;102508.25;7410649;19;1607;-70
2022/11/12 04:53:54;;;;;;;;;;;;;;;19.07;65.76;102509.56;7406388;19;1870;-70
2022/11/12 04:56:23;;;;;;;;;;;;;;;19.06;65.94;102502.50;7409484;19;1520;-70
2022/11/12 04:58:51;;;;;;;;;;;;;;;19.05;65.86;102505.28;7409355;19;1462;-70
2022/11/12 05:01:22;;;;;;;;;;;;;;;19.03;66.93;102505.34;7405786;19;1552;-70
2022/11/12 05:03:50;;;;;;;;;;;;;;;19.14;67.87;102506.50;6894956;19;10000368;-71
2022/11/12 05:08:59;;;;;;;;;;;;;;;19.98;65.82;102497.69;7400701;19;1317;-69
2022/11/12 05:11:27;;;;;;;;;;;;;;;20.10;65.27;102507.63;7403268;19;1331;-71
2022/11/12 05:13:56;;;;;;;;;;;;;;;20.03;65.05;102499.13;7400850;19;1865;-71
2022/11/12 05:16:26;;;;;;;;;;;;;;;20.10;64.71;102518.38;7400467;19;1596;-73
2022/11/12 05:18:55;;;;;;;;;;;;;;;20.32;63.83;102507.06;7399416;19;1463;-69
2022/11/12 05:24:04;;;;;;;;;;;;;;;20.27;64.13;102519.94;7398746;19;1283;-78
2022/11/12 05:26:32;;;;;;;;;;;;;;;20.31;64.21;102507.16;7403649;19;1475;-73
2022/11/12 05:29:00;;;;;;;;;;;;;;;20.37;63.81;102523.78;7399972;19;1711;-69
2022/11/12 05:31:31;;;;;;;;;;;;;;;20.46;64.03;102530.34;7400864;19;1346;-71
2022/11/12 05:34:00;;;;;;;;;;;;;;;20.56;63.77;102522.53;7401010;19;1877;-71
2022/11/12 05:36:28;;;;;;;;;;;;;;;20.53;63.61;102526.28;7401757;19;1295;-73
2022/11/12 05:38:57;;;;;;;;;;;;;;;20.56;63.45;102536.81;7398702;19;1442;-74
2022/11/12 05:41:25;;;;;;;;;;;;;;;20.58;63.67;102532.19;7404343;19;1538;-71
2022/11/12 05:43:53;;;;;;;;;;;;;;;21.01;63.12;102521.25;7405526;19;1435;-72
2022/11/12 05:46:22;;;;;;;;;;;;;;;20.88;63.42;102520.38;7404209;19;1446;-69
2022/11/12 05:48:53;;;;;;;;;;;;;;;20.79;63.71;102537.13;7404495;19;1689;-71
2022/11/12 05:51:21;;;;;;;;;;;;;;;20.74;64.10;102548.19;7405017;19;1625;-71
2022/11/12 05:53:49;;;;;;;;;;;;;;;20.83;65.79;102549.38;7406106;19;1856;-69
2022/11/12 05:56:17;;;;;;;;;;;;;;;20.63;66.12;102548.94;7404606;19;1726;-69
2022/11/12 05:58:46;;;;;;;;;;;;;;;20.77;67.29;102537.25;7407695;19;1767;-66
2022/11/12 06:01:14;;;;;;;;;;;;;;;20.78;67.67;102551.53;7403689;19;1312;-64
2022/11/12 06:03:42;;;;;;;;;;;;;;;20.68;67.61;102531.63;7405502;19;1453;-62
2022/11/12 06:06:13;;;;;;;;;;;;;;;20.62;69.53;102552.56;7407466;19;1676;-65
2022/11/12 06:08:41;;;;;;;;;;;;;;;20.55;71.27;102532.44;7406607;19;1619;-68
2022/11/12 06:11:10;;;;;;;;;;;;;;;20.69;74.30;102542.28;7407463;19;1686;-63
2022/11/12 06:13:38;;;;;;;;;;;;;;;20.54;72.90;102543.28;7403290;19;1865;-63
2022/11/12 06:16:07;;;;;;;;;;;;;;;20.55;74.42;102540.50;7405503;19;1564;-64
2022/11/12 06:18:36;;;;;;;;;;;;;;;20.73;73.26;102549.19;7405707;19;1726;-65
2022/11/12 06:23:49;;;;;;;;;;;;;;;21.06;73.18;102574.72;7408155;19;1310;-64
2022/11/12 06:26:18;;;;;;;;;;;;;;;20.92;75.26;102559.53;7406526;19;1165;-61
2022/11/12 06:28:46;;;;;;;;;;;;;;;20.94;75.22;102562.97;7403060;19;1656;-66
2022/11/12 06:31:14;;;;;;;;;;;;;;;20.98;75.05;102551.03;7399166;19;1726;-66
2022/11/12 06:33:43;;;;;;;;;;;;;;;20.82;75.04;102555.75;7399951;19;1866;-56
2022/11/12 06:36:13;;;;;;;;;;;;;;;20.60;75.05;102554.50;7405380;19;1302;-55
2022/11/12 06:38:41;;;;;;;;;;;;;;;20.69;73.90;102563.78;7401014;19;1283;-56
2022/11/12 06:41:13;;;;;;;;;;;;;;;20.82;72.70;102563.81;7403661;19;1079;-56
2022/11/12 06:43:42;;;;;;;;;;;;;;;20.86;72.59;102566.19;7406165;19;1390;-65
2022/11/12 06:46:12;;;;;;;;;;;;;;;20.86;73.21;102573.41;7404396;19;1304;-56
2022/11/12 06:48:41;;;;;;;;;;;;;;;21.23;72.21;102560.13;7406565;19;1359;-65
2022/11/12 06:51:11;;;;;;;;;;;;;;;21.21;70.11;102575.50;7405824;19;1599;-67
2022/11/12 06:53:39;;;;;;;;;;;;;;;21.22;71.20;102579.91;7402944;19;1850;-67
2022/11/12 06:56:09;;;;;;;;;;;;;;;20.91;72.62;102571.28;7405720;19;1177;-56
2022/11/12 06:58:40;;;;;;;;;;;;;;;20.90;73.12;102577.59;7406173;19;1349;-66
2022/11/12 07:01:09;;;;;;;;;;;;;;;21.01;72.76;102556.22;7403215;19;1383;-80
2022/11/12 07:03:37;;;;;;;;;;;;;;;20.98;72.60;102577.94;7404198;19;1232;-55
2022/11/12 07:06:06;;;;;;;;;;;;;;;20.82;73.28;102580.81;7404425;19;1258;-68
2022/11/12 07:08:35;;;;;;;;;;;;;;;20.75;73.03;102570.56;7405086;19;1252;-56
2022/11/12 07:11:03;;;;;;;;;;;;;;;20.53;73.64;102571.09;7402179;19;1353;-70
2022/11/12 07:13:33;;;;;;;;;;;;;;;20.39;74.28;102561.25;7402773;19;1853;-69
2022/11/12 07:16:04;;;;;;;;;;;;;;;20.28;74.40;102572.72;7401400;19;1326;-55
2022/11/12 07:18:32;;;;;;;;;;;;;;;20.29;74.26;102570.88;7401553;19;1240;-56
2022/11/12 07:21:01;;;;;;;;;;;;;;;20.40;74.20;102563.00;7401875;19;1612;-70
2022/11/12 07:23:31;;;;;;;;;;;;;;;20.54;74.18;102570.16;7403044;19;1399;-71
2022/11/12 07:26:00;;;;;;;;;;;;;;;20.73;73.65;102585.94;7402320;19;1170;-68
2022/11/12 07:28:29;;;;;;;;;;;;;;;20.97;73.21;102583.41;7399014;19;1417;-72
2022/11/12 07:30:58;;;;;;;;;;;;;;;20.63;73.85;102578.50;7400717;19;1223;-69
2022/11/12 07:33:30;;;;;;;;;;;;;;;20.39;75.25;102580.97;7401721;19;1869;-66
2022/11/12 07:35:58;;;;;;;;;;;;;;;20.24;74.81;102566.69;7401322;19;1260;-72
2022/11/12 07:38:27;;;;;;;;;;;;;;;20.50;74.65;102572.16;7402209;19;1271;-66
2022/11/12 07:41:00;;;;;;;;;;;;;;;20.64;74.10;102582.03;7402881;19;1284;-68
2022/11/12 07:43:28;;;;;;;;;;;;;;;20.79;73.48;102561.31;7402491;19;1751;-69
2022/11/12 07:45:59;;;;;;;;;;;;;;;20.90;73.05;102591.03;7410483;19;1467;-71
2022/11/12 07:48:30;;;;;;;;;;;;;;;20.85;73.47;102563.63;7410725;19;1422;-69
2022/11/12 07:51:02;;;;;;;;;;;;;;;20.42;71.77;102582.56;7410462;19;1379;-70
2022/11/12 07:53:31;;;;;;;;;;;;;;;20.30;72.86;102562.75;7408223;19;1846;-69
2022/11/12 07:56:00;;;;;;;;;;;;;;;20.25;73.29;102563.06;7410964;19;1318;-67
2022/11/12 07:58:29;;;;;;;;;;;;;;;20.38;73.59;102575.69;7410238;19;1211;-68
2022/11/12 08:00:57;;;;;;;;;;;;;;;20.50;73.44;102585.59;7408467;19;1282;-68
2022/11/12 08:03:26;;;;;;;;;;;;;;;20.50;74.94;102590.13;7409351;19;1429;-69
2022/11/12 08:05:57;;;;;;;;;;;;;;;20.58;74.20;102583.28;7408508;19;1432;-69
2022/11/12 08:08:25;;;;;;;;;;;;;;;20.31;75.23;102596.69;7408311;19;1405;-69
2022/11/12 08:10:55;;;;;;;;;;;;;;;20.23;75.31;102594.53;7404816;19;1317;-71
2022/11/12 08:13:24;;;;;;;;;;;;;;;20.19;75.86;102593.00;7407616;19;1865;-62
2022/11/12 08:15:52;;;;;;;;;;;;;;;20.29;76.18;102589.69;7408508;19;1417;-70
2022/11/12 08:18:21;;;;;;;;;;;;;;;20.31;75.97;102590.47;7409771;19;1287;-63
2022/11/12 08:20:49;;;;;;;;;;;;;;;20.34;76.22;102598.34;7408857;19;1283;-63
2022/11/12 08:23:20;;;;;;;;;;;;;;;20.46;75.09;102605.59;7403496;19;1471;-67
2022/11/12 08:25:48;;;;;;;;;;;;;;;20.33;75.52;102612.72;7408632;19;1380;-66
2022/11/12 08:28:16;;;;;;;;;;;;;;;20.22;76.25;102600.84;7403336;19;1429;-66
2022/11/12 08:30:45;;;;;;;;;;;;;;;20.18;76.45;102593.94;7406710;19;1258;-63
2022/11/12 08:33:13;;;;;;;;;;;;;;;20.32;76.60;102609.16;7407989;19;1857;-66
2022/11/12 08:35:41;;;;;;;;;;;;;;;20.26;76.73;102602.38;7404205;19;1346;-69
2022/11/12 08:38:10;;;;;;;;;;;;;;;20.36;75.89;102607.16;7408369;19;1302;-71
2022/11/12 08:40:41;;;;;;;;;;;;;;;20.36;76.21;102612.53;7408569;19;1240;-66
2022/11/12 08:43:10;;;;;;;;;;;;;;;20.23;77.59;102621.38;7408515;19;1368;-64
2022/11/12 08:45:39;;;;;;;;;;;;;;;20.15;77.05;102623.69;7408816;19;1358;-70
2022/11/12 08:48:08;;;;;;;;;;;;;;;20.34;77.34;102617.16;7405678;19;1157;-74
2022/11/12 08:50:37;;;;;;;;;;;;;;;20.23;76.93;102609.75;7402937;19;1071;-73
2022/11/12 08:53:06;;;;;;;;;;;;;;;20.19;76.54;102619.84;7405834;19;1876;-69
2022/11/12 08:55:35;;;;;;;;;;;;;;;20.17;77.00;102597.56;7408461;19;1457;-66
2022/11/12 08:58:06;;;;;;;;;;;;;;;20.33;76.38;102615.41;7407547;19;1354;-63
2022/11/12 09:00:36;;;;;;;;;;;;;;;20.43;76.34;102601.28;7406892;19;1242;-66
2022/11/12 09:03:05;;;;;;;;;;;;;;;20.34;76.08;102618.00;7407750;19;1327;-60
2022/11/12 09:05:33;;;;;;;;;;;;;;;20.20;76.21;102602.75;7407302;19;1353;-64
2022/11/12 09:08:02;;;;;;;;;;;;;;;20.35;77.07;102633.16;7408977;19;1241;-61
2022/11/12 09:10:31;;;;;;;;;;;;;;;20.41;76.17;102615.75;7407685;19;1483;-70
2022/11/12 09:13:00;;;;;;;;;;;;;;;20.32;76.53;102619.06;7408230;19;1313;-61
2022/11/12 09:15:31;;;;;;;;;;;;;;;20.19;77.26;102598.38;7404128;19;1845;-64
2022/11/12 09:18:00;;;;;;;;;;;;;;;20.37;77.34;102608.88;7408760;19;1723;-64
2022/11/12 09:20:29;;;;;;;;;;;;;;;20.38;76.70;102605.22;7406813;19;1339;-65
2022/11/12 09:23:00;;;;;;;;;;;;;;;20.52;75.77;102591.75;7407981;19;1361;-69
2022/11/12 09:25:28;;;;;;;;;;;;;;;20.33;76.13;102605.50;7410484;19;1564;-75
2022/11/12 09:27:57;;;;;;;;;;;;;;;20.24;77.15;102614.19;7405636;19;1666;-74
2022/11/12 09:30:25;;;;;;;;;;;;;;;20.41;75.93;102607.69;7401933;19;1786;-69
2022/11/12 09:33:01;;;;;;;;;;;;;;;20.48;75.44;102586.69;7404320;19;1452;-68
2022/11/12 09:35:29;;;;;;;;;;;;;;;20.30;75.47;102596.81;7406048;19;1859;-64
2022/11/12 09:37:58;;;;;;;;;;;;;;;20.19;75.40;102600.16;7406198;19;1714;-67
2022/11/12 09:40:33;;;;;;;;;;;;;;;20.51;76.47;102581.94;7408691;19;1521;-71
2022/11/12 09:43:02;;;;;;;;;;;;;;;20.53;75.56;102579.16;7406213;19;1595;-64
2022/11/12 09:45:32;;;;;;;;;;;;;;;20.55;75.07;102594.25;7408777;19;1524;-66
2022/11/12 09:48:04;;;;;;;;;;;;;;;20.44;75.43;102600.31;7408280;19;1505;-66
2022/11/12 09:50:35;;;;;;;;;;;;;;;20.41;75.04;102596.94;7407657;19;1632;-69
2022/11/12 09:53:06;;;;;;;;;;;;;;;20.55;75.78;102605.00;7408607;19;1516;-69
2022/11/12 09:55:37;;;;;;;;;;;;;;;20.47;75.66;102585.81;7405195;19;1858;-69
2022/11/12 09:58:11;;;;;;;;;;;;;;;20.45;75.81;102596.66;7406071;19;1758;-74
2022/11/12 10:00:39;;;;;;;;;;;;;;;20.41;76.84;102580.81;7405673;19;1672;-62
2022/11/12 10:03:16;;;;;;;;;;;;;;;20.65;75.38;102587.31;7408138;19;1302;-69
2022/11/12 10:05:50;;;;;;;;;;;;;;;20.71;75.54;102582.47;7404691;19;1393;-69
2022/11/12 10:08:30;;;;;;;;;;;;;;;20.63;76.10;102585.69;7404997;19;1385;-70
2022/11/12 10:11:03;;;;;;;;;;;;;;;20.55;76.65;102574.53;7408038;19;1313;-69
2022/11/12 10:13:40;;;;;;;;;;;;;;;20.51;76.75;102581.94;7406387;19;1538;-69
2022/11/12 10:19:05;;;;;;;;;;;;;;;20.61;77.25;102583.13;7399024;19;1279;-69
2022/11/12 10:21:37;;;;;;;;;;;;;;;20.53;78.85;102585.44;7400186;19;1461;-68
2022/11/12 10:24:09;;;;;;;;;;;;;;;20.35;78.27;102578.53;7400037;19;1236;-72
2022/11/12 10:26:38;;;;;;;;;;;;;;;20.34;78.20;102584.91;7400375;19;959;-67
2022/11/12 10:29:14;;;;;;;;;;;;;;;20.46;77.98;102589.47;7396945;19;1385;-67
2022/11/12 10:31:42;;;;;;;;;;;;;;;20.53;77.56;102563.91;7399143;19;1086;-67
2022/11/12 10:34:16;;;;;;;;;;;;;;;20.42;77.74;102569.13;7399101;19;1865;-67
2022/11/12 10:36:46;;;;;;;;;;;;;;;20.27;77.23;102566.50;7398205;19;1250;-66
2022/11/12 10:39:29;;;;;;;;;;;;;;;20.21;77.56;102556.16;7396839;19;1412;-66
2022/11/12 10:42:04;;;;;;;;;;;;;;;20.32;77.61;102555.44;7399770;19;1117;-67
2022/11/12 10:44:32;;;;;;;;;;;;;;;20.43;77.72;102569.03;7399390;19;1354;-66
2022/11/12 10:47:19;;;;;;;;;;;;;;;20.42;77.30;102559.25;7399513;19;1623;-66
2022/11/12 10:50:00;;;;;;;;;;;;;;;20.27;77.76;102547.69;7400177;19;1287;-67
2022/11/12 10:52:29;;;;;;;;;;;;;;;20.19;78.20;102566.13;7400624;19;1501;-67
2022/11/12 10:55:05;;;;;;;;;;;;;;;20.22;77.60;102551.63;7404265;19;1861;-69
2022/11/12 10:57:34;;;;;;;;;;;;;;;20.39;77.96;102580.06;7404167;19;1565;-68
2022/11/12 11:00:08;;;;;;;;;;;;;;;20.50;76.73;102561.44;7403566;19;1538;-70
2022/11/12 11:02:36;;;;;;;;;;;;;;;20.32;77.00;102559.97;7404193;19;1614;-72
2022/11/12 11:05:19;;;;;;;;;;;;;;;20.26;77.00;102567.44;7403974;19;1756;-74
2022/11/12 11:07:53;;;;;;;;;;;;;;;20.48;76.29;102554.44;7404893;19;1576;-68
2022/11/12 11:10:24;;;;;;;;;;;;;;;20.75;75.72;102557.13;7402589;19;1701;-81
2022/11/12 11:13:10;;;;;;;;;;;;;;;20.62;76.37;102547.19;7404448;19;1368;-70
2022/11/12 11:15:39;;;;;;;;;;;;;;;20.31;77.43;102556.38;7402998;19;1856;-70
2022/11/12 11:18:09;;;;;;;;;;;;;;;20.22;77.47;102539.06;7403578;19;1483;-71
2022/11/12 11:20:45;;;;;;;;;;;;;;;20.43;75.98;102528.72;7405606;19;1511;-67
2022/11/12 11:23:19;;;;;;;;;;;;;;;20.73;74.61;102532.16;7405532;19;1316;-71
2022/11/12 11:25:50;;;;;;;;;;;;;;;20.89;74.24;102532.88;7406001;19;1062;-73
2022/11/12 11:28:23;;;;;;;;;;;;;;;20.81;76.75;102535.19;7403364;19;1780;-72
2022/11/12 11:30:55;;;;;;;;;;;;;;;20.55;77.61;102540.50;7402829;19;1348;-71
2022/11/12 11:33:27;;;;;;;;;;;;;;;20.24;78.17;102545.19;7403294;19;1572;-68
2022/11/12 11:36:00;;;;;;;;;;;;;;;20.40;77.29;102533.44;7402808;19;1879;-72
2022/11/12 11:38:39;;;;;;;;;;;;;;;21.02;75.10;102549.84;7399858;19;1414;-70
2022/11/12 11:41:20;;;;;;;;;;;;;;;21.13;75.57;102529.41;7401485;19;1478;-68
2022/11/12 11:43:55;;;;;;;;;;;;;;;20.71;78.39;102544.84;7404099;19;1264;-71
2022/11/12 11:46:29;;;;;;;;;;;;;;;20.40;79.59;102558.47;7401853;19;1622;-68
2022/11/12 11:49:06;;;;;;;;;;;;;;;20.33;80.27;102546.41;7402955;19;1382;-64
2022/11/12 11:51:51;;;;;;;;;;;;;;;20.52;79.61;102562.19;7404723;19;1299;-69
2022/11/12 11:54:33;;;;;;;;;;;;;;;20.75;79.01;102549.03;7400768;19;1846;-72
2022/11/12 11:57:03;;;;;;;;;;;;;;;20.71;79.19;102542.16;7403101;19;1262;-66
2022/11/12 11:59:39;;;;;;;;;;;;;;;20.52;79.60;102551.44;7401098;19;1604;-69
2022/11/12 12:02:20;;;;;;;;;;;;;;;20.29;79.03;102550.25;7399264;19;1507;-69
2022/11/12 12:04:50;;;;;;;;;;;;;;;20.51;77.31;102538.94;7399962;19;1090;-67
2022/11/12 12:07:23;;;;;;;;;;;;;;;20.94;76.05;102525.31;7400926;19;1592;-70
2022/11/12 12:09:58;;;;;;;;;;;;;;;21.51;74.45;102550.16;7403532;19;1777;-70
2022/11/12 12:12:32;;;;;;;;;;;;;;;21.20;74.40;102549.56;7398827;19;1899;-68
2022/11/12 12:15:06;;;;;;;;;;;;;;;20.71;75.70;102550.22;7402654;19;1862;-70
2022/11/12 12:17:41;;;;;;;;;;;;;;;20.39;76.57;102559.47;7400056;19;1399;-71
2022/11/12 12:20:17;;;;;;;;;;;;;;;20.27;77.30;102541.44;7399636;19;1578;-68
2022/11/12 12:22:48;;;;;;;;;;;;;;;20.62;76.14;102540.97;7398225;19;1433;-69
2022/11/12 12:25:23;;;;;;;;;;;;;;;20.88;75.44;102547.25;7401196;19;1153;-72
2022/11/12 12:27:55;;;;;;;;;;;;;;;20.81;76.10;102557.59;7399639;19;1483;-66
2022/11/12 12:30:24;;;;;;;;;;;;;;;20.56;76.34;102552.94;7402007;19;1292;-76
2022/11/12 12:32:56;;;;;;;;;;;;;;;20.36;77.16;102572.22;7410879;19;1372;-71
2022/11/12 12:35:28;;;;;;;;;;;;;;;20.31;77.08;102574.34;7409106;19;1869;-71
2022/11/12 12:38:01;;;;;;;;;;;;;;;20.39;77.35;102572.00;7408520;19;1209;-68
2022/11/12 12:40:35;;;;;;;;;;;;;;;20.68;77.04;102550.44;7410520;19;1262;-66
2022/11/12 12:43:06;;;;;;;;;;;;;;;20.75;77.08;102560.69;7406407;19;1679;-66
2022/11/12 12:45:37;;;;;;;;;;;;;;;20.52;77.48;102555.94;7408679;19;1589;-71
2022/11/12 12:48:07;;;;;;;;;;;;;;;20.35;77.75;102559.75;7409856;19;1348;-75
2022/11/12 12:50:38;;;;;;;;;;;;;;;20.29;78.09;102557.47;7407908;19;1185;-74
2022/11/12 12:53:07;;;;;;;;;;;;;;;20.48;77.38;102554.44;7409348;19;1294;-76
2022/11/12 12:55:40;;;;;;;;;;;;;;;20.60;77.46;102548.28;7407642;19;1871;-74
2022/11/12 12:58:20;;;;;;;;;;;;;;;20.42;79.33;102550.31;7405586;19;1367;-74
2022/11/12 13:00:50;;;;;;;;;;;;;;;20.40;78.52;102557.63;7402564;19;1337;-71
2022/11/12 13:03:33;;;;;;;;;;;;;;;20.54;78.00;102536.06;7404835;19;1439;-71
2022/11/12 13:06:08;;;;;;;;;;;;;;;20.56;77.84;102542.19;7402629;19;1266;-69
2022/11/12 13:08:38;;;;;;;;;;;;;;;20.61;78.21;102533.84;7405341;19;1258;-73
2022/11/12 13:11:09;;;;;;;;;;;;;;;20.57;78.29;102537.69;7407833;19;1178;-65
2022/11/12 13:13:38;;;;;;;;;;;;;;;20.48;78.70;102546.38;7408898;19;1296;-76
2022/11/12 13:16:06;;;;;;;;;;;;;;;20.35;79.03;102538.25;7406161;19;1849;-68
2022/11/12 13:18:49;;;;;;;;;;;;;;;20.80;78.36;102549.63;7404915;19;1246;-66
2022/11/12 13:21:19;;;;;;;;;;;;;;;20.95;77.32;102524.38;7404966;19;1297;-67
2022/11/12 13:26:44;;;;;;;;;;;;;;;20.68;78.70;102550.44;7402901;19;1524;-65
2022/11/12 13:29:27;;;;;;;;;;;;;;;20.46;79.31;102538.41;7406741;19;1373;-69
2022/11/12 13:32:10;;;;;;;;;;;;;;;20.43;79.18;102535.91;7406694;19;1638;-68
2022/11/12 13:34:41;;;;;;;;;;;;;;;20.61;79.12;102523.97;7406296;19;1849;-63
2022/11/12 13:37:17;;;;;;;;;;;;;;;20.56;79.13;102544.88;7408514;19;1707;-67
2022/11/12 13:39:45;;;;;;;;;;;;;;;20.53;78.89;102531.66;7408644;19;1464;-62
2022/11/12 13:44:56;;;;;;;;;;;;;;;20.60;78.97;102540.22;7409637;19;1281;-62
2022/11/12 13:47:28;;;;;;;;;;;;;;;20.73;78.35;102538.44;7402564;19;1656;-62
2022/11/12 13:50:01;;;;;;;;;;;;;;;20.74;78.08;102533.91;7406820;19;1478;-62
2022/11/12 13:52:30;;;;;;;;;;;;;;;20.43;78.67;102530.53;7407887;19;1446;-62
2022/11/12 13:55:06;;;;;;;;;;;;;;;20.32;79.29;102535.78;7404568;19;1866;-65